Terminal Aerodrome Forecast
Issued by NWS Omaha/Valley, NE

Home | Current Version | Previous Version | Text Only | Print | Product List | Glossary On
Versions: 1 2 3 4 5 6 7 8 9 10 11 12 13 14 15 16 17 18
000
FTUS43 KOAX 301120
TAFOFK
TAF
KOFK 301120Z 3012/3112 VRB05KT P6SM SCT100 BKN250
     FM301600 18010KT P6SM SCT040 BKN250
     FM302000 18012KT P6SM BKN050 PROB30 3021/3103 5SM TSRA BKN035CB
     FM310300 17008KT P6SM BKN040
      TEMPO 3103/3105 3SM TSRA BKN030CB=

USA.gov is the U.S. government's official web portal to all federal, state and local government web resources and services.